createdAt,value
2022-12-27T00:01:56.490Z,101413.06
2022-12-27T00:04:23.793Z,101420.91
2022-12-27T00:06:50.718Z,101430.38
2022-12-27T00:09:17.639Z,101427.41
2022-12-27T00:11:45.221Z,101418.88
2022-12-27T00:14:12.304Z,101430.13
2022-12-27T00:16:39.508Z,101424.69
2022-12-27T00:19:06.543Z,101426.34
2022-12-27T00:21:33.303Z,101423.69
2022-12-27T00:24:00.738Z,101422.66
2022-12-27T00:26:30.044Z,101417.69
2022-12-27T00:28:57.460Z,101431.13
2022-12-27T00:31:26.911Z,101429.44
2022-12-27T00:33:55.832Z,101428.25
2022-12-27T00:36:25.570Z,101432.16
2022-12-27T00:38:53.562Z,101435.25
2022-12-27T00:41:20.555Z,101439.38
2022-12-27T00:43:47.891Z,101441.13
2022-12-27T00:46:15.085Z,101439.16
2022-12-27T00:48:41.888Z,101443.28
2022-12-27T00:51:19.413Z,101446.88
2022-12-27T00:53:48.656Z,101454.81
2022-12-27T00:56:21.957Z,101456.59
2022-12-27T00:58:53.239Z,101462.44
2022-12-27T01:01:21.750Z,101459.88
2022-12-27T01:03:48.757Z,101454.44
2022-12-27T01:06:18.794Z,101458.31
2022-12-27T01:08:46.387Z,101468.44
2022-12-27T01:11:15.044Z,101461.72
2022-12-27T01:13:42.543Z,101468.34
2022-12-27T01:16:11.833Z,101465.34
2022-12-27T01:18:38.544Z,101464.94
2022-12-27T01:21:10.108Z,101470.28
2022-12-27T01:23:37.467Z,101467.28
2022-12-27T01:26:06.747Z,101475.53
2022-12-27T01:28:34.019Z,101470.06
2022-12-27T01:31:08.959Z,101470.06
2022-12-27T01:33:35.751Z,101474.81
2022-12-27T01:36:16.744Z,101488.81
2022-12-27T01:38:43.566Z,101490.59
2022-12-27T01:41:57.096Z,101494.16
2022-12-27T01:44:43.592Z,101494.88
2022-12-27T01:47:12.953Z,101498.19
2022-12-27T01:49:40.924Z,101496.44
2022-12-27T01:52:11.617Z,101496.44
2022-12-27T01:54:39.086Z,101498.19
2022-12-27T01:57:06.458Z,101500.97
2022-12-27T01:59:34.246Z,101496.56
2022-12-27T02:02:01.463Z,101506.50
2022-12-27T02:04:30.677Z,101502.63
2022-12-27T02:06:58.089Z,101509.41
2022-12-27T02:09:44.778Z,101515.13
2022-12-27T02:12:11.925Z,101528.09
2022-12-27T02:14:47.004Z,101510.59
2022-12-27T02:17:18.894Z,101522.75
2022-12-27T02:20:12.719Z,101520.88
2022-12-27T02:23:39.545Z,101515.53
2022-12-27T02:26:32.581Z,101516.25
2022-12-27T02:29:19.928Z,101516.47
2022-12-27T02:31:57.092Z,101531.38
2022-12-27T02:34:31.271Z,101525.53
2022-12-27T02:37:04.228Z,101527.03
2022-12-27T02:39:36.107Z,101529.91
2022-12-27T02:42:22.031Z,101529.81
2022-12-27T02:45:07.749Z,101529.75
2022-12-27T02:47:54.270Z,101529.41
2022-12-27T02:50:40.079Z,101523.94
2022-12-27T02:53:19.009Z,101522.38
2022-12-27T02:56:25.213Z,101521.69
2022-12-27T02:59:09.874Z,101522.66
2022-12-27T03:02:13.977Z,101525.56
2022-12-27T03:05:30.532Z,101535.47
2022-12-27T03:08:13.831Z,101523.31
2022-12-27T03:11:01.986Z,101525.75
2022-12-27T03:14:15.872Z,101520.63
2022-12-27T03:16:58.661Z,101530.41
2022-12-27T03:19:58.073Z,101528.84
2022-12-27T03:22:47.220Z,101532.22
2022-12-27T03:25:28.424Z,101531.75
2022-12-27T03:28:22.848Z,101531.47
2022-12-27T03:31:15.600Z,101533.56
2022-12-27T03:33:43.165Z,101533.97
2022-12-27T03:36:41.148Z,101532.22
2022-12-27T03:39:16.950Z,101530.28
2022-12-27T03:42:09.664Z,101533.22
2022-12-27T03:44:36.324Z,101530.97
2022-12-27T03:47:32.073Z,101535.78
2022-12-27T03:50:07.871Z,101540.50
2022-12-27T03:52:44.139Z,101533.22
2022-12-27T03:55:11.929Z,101542.78
2022-12-27T03:57:39.760Z,101544.41
2022-12-27T04:00:07.160Z,101548.31
2022-12-27T04:02:40.761Z,101556.06
2022-12-27T04:05:07.958Z,101553.28
2022-12-27T04:07:34.941Z,101551.16
2022-12-27T04:10:20.340Z,101551.16
2022-12-27T04:13:05.686Z,101559.94
2022-12-27T04:15:51.241Z,101562.34
2022-12-27T04:18:36.579Z,101560.03
2022-12-27T04:21:21.695Z,101561.84
2022-12-27T04:24:07.279Z,101563.19
2022-12-27T04:26:52.588Z,101560.41
2022-12-27T04:29:37.535Z,101555.69
2022-12-27T04:32:23.146Z,101551.34
2022-12-27T04:34:49.794Z,101542.25
2022-12-27T04:37:18.967Z,101556.28
2022-12-27T04:40:10.645Z,101553.19
2022-12-27T04:42:55.694Z,101562.94
2022-12-27T04:45:41.614Z,101558.09
2022-12-27T04:48:34.355Z,101556.06
2022-12-27T04:51:20.462Z,101550.81
2022-12-27T04:54:05.947Z,101559.88
2022-12-27T04:56:32.772Z,101566.34
2022-12-27T04:59:18.275Z,101555.69
2022-12-27T05:02:03.495Z,101568.53
2022-12-27T05:04:32.450Z,101554.50
2022-12-27T05:07:19.635Z,101558.84
2022-12-27T05:10:05.261Z,101553.91
2022-12-27T05:12:50.176Z,101557.34
2022-12-27T05:15:16.876Z,101561.78
2022-12-27T05:17:43.660Z,101570.09
2022-12-27T05:20:11.188Z,101573.84
2022-12-27T05:22:56.383Z,101572.50
2022-12-27T05:25:35.395Z,101573.69
2022-12-27T05:28:03.229Z,101573.25
2022-12-27T05:30:32.823Z,101574.28
2022-12-27T05:32:59.484Z,101580.22
2022-12-27T05:35:26.086Z,101578.28
2022-12-27T05:37:55.843Z,101580.59
2022-12-27T05:40:23.388Z,101569.03
2022-12-27T05:42:50.569Z,101575.03
2022-12-27T05:45:17.655Z,101583.19
2022-12-27T05:47:44.550Z,101581.34
2022-12-27T05:50:11.694Z,101590.28
2022-12-27T05:52:41.177Z,101593.47
2022-12-27T05:55:08.744Z,101583.47
2022-12-27T05:57:35.397Z,101589.03
2022-12-27T06:00:02.995Z,101587.91
2022-12-27T06:02:39.590Z,101591.34
2022-12-27T06:05:06.891Z,101601.63
2022-12-27T06:07:35.905Z,101602.00
2022-12-27T06:10:04.059Z,101593.81
2022-12-27T06:12:31.321Z,101600.00
2022-12-27T06:14:58.156Z,101601.94
2022-12-27T06:17:25.071Z,101592.19
2022-12-27T06:19:56.781Z,101587.97
2022-12-27T06:22:24.642Z,101589.56
2022-12-27T06:24:51.400Z,101584.78
2022-12-27T06:27:17.942Z,101588.47
2022-12-27T06:29:44.528Z,101596.28
2022-12-27T06:32:11.281Z,101610.81
2022-12-27T06:34:38.184Z,101618.63
2022-12-27T06:37:04.905Z,101623.09
2022-12-27T06:39:31.626Z,101625.81
2022-12-27T06:41:58.349Z,101624.50
2022-12-27T06:44:26.198Z,101614.69
2022-12-27T06:46:52.969Z,101616.66
2022-12-27T06:49:19.694Z,101621.66
2022-12-27T06:51:52.560Z,101621.31
2022-12-27T06:54:22.686Z,101620.16
2022-12-27T06:56:49.523Z,101621.97
2022-12-27T06:59:16.126Z,101624.75
2022-12-27T07:01:42.992Z,101618.72
2022-12-27T07:04:10.538Z,101626.97
2022-12-27T07:06:56.167Z,101621.66
2022-12-27T07:09:22.873Z,101623.34
2022-12-27T07:11:49.681Z,101625.44
2022-12-27T07:14:16.479Z,101630.47
2022-12-27T07:16:43.330Z,101631.25
2022-12-27T07:19:10.526Z,101636.59
2022-12-27T07:21:37.342Z,101634.28
2022-12-27T07:24:04.463Z,101637.88
2022-12-27T07:26:31.259Z,101640.91
2022-12-27T07:29:00.946Z,101640.31
2022-12-27T07:31:33.464Z,101649.97
2022-12-27T07:34:02.573Z,101661.06
2022-12-27T07:36:34.102Z,101651.06
2022-12-27T07:39:00.789Z,101654.94
2022-12-27T07:41:27.791Z,101665.56
2022-12-27T07:43:54.896Z,101669.97
2022-12-27T07:46:24.307Z,101670.53
2022-12-27T07:48:54.183Z,101671.59
2022-12-27T07:51:21.207Z,101665.22
2022-12-27T07:53:49.474Z,101667.69
2022-12-27T07:56:25.452Z,101675.44
2022-12-27T07:58:54.286Z,101673.88
2022-12-27T08:01:22.579Z,101661.66
2022-12-27T08:03:49.766Z,101668.09
2022-12-27T08:06:29.978Z,101668.41
2022-12-27T08:08:59.234Z,101674.53
2022-12-27T08:11:30.157Z,101679.38
2022-12-27T08:13:57.142Z,101686.59
2022-12-27T08:16:26.003Z,101679.50
2022-12-27T08:18:53.836Z,101689.09
2022-12-27T08:21:20.771Z,101688.28
2022-12-27T08:23:47.606Z,101682.53
2022-12-27T08:26:14.970Z,101687.25
2022-12-27T08:28:41.832Z,101684.22
2022-12-27T08:31:13.814Z,101687.84
2022-12-27T08:33:41.941Z,101675.09
2022-12-27T08:36:36.825Z,101681.06
2022-12-27T08:38:57.790Z,101681.38
2022-12-27T08:41:24.619Z,101684.16
2022-12-27T08:43:51.223Z,101678.91
2022-12-27T08:46:19.753Z,101674.91
2022-12-27T08:48:50.673Z,101682.41
2022-12-27T08:51:26.550Z,101687.34
2022-12-27T08:53:58.375Z,101689.00
2022-12-27T08:56:25.191Z,101692.97
2022-12-27T08:58:52.040Z,101690.13
2022-12-27T09:01:19.084Z,101689.16
2022-12-27T09:03:46.239Z,101693.22
2022-12-27T09:06:18.674Z,101693.97
2022-12-27T09:08:47.473Z,101691.88
2022-12-27T09:11:16.853Z,101692.22
2022-12-27T09:13:43.651Z,101694.34
2022-12-27T09:16:13.538Z,101692.59
2022-12-27T09:18:41.893Z,101685.81
2022-12-27T09:21:13.887Z,101687.31
2022-12-27T09:23:41.726Z,101688.22
2022-12-27T09:26:15.058Z,101690.69
2022-12-27T09:28:42.621Z,101697.41
2022-12-27T09:31:11.241Z,101698.13
2022-12-27T09:33:38.439Z,101693.72
2022-12-27T09:36:17.410Z,101690.47
2022-12-27T09:38:45.390Z,101695.22
2022-12-27T09:42:33.817Z,101693.84
2022-12-27T09:44:22.991Z,101696.34
2022-12-27T09:46:59.309Z,101698.41
2022-12-27T09:50:12.664Z,101692.66
2022-12-27T09:52:53.698Z,101701.31
2022-12-27T09:55:43.209Z,101703.56
2022-12-27T09:58:30.980Z,101701.31
2022-12-27T10:00:57.851Z,101704.22
2022-12-27T10:03:27.186Z,101698.03
2022-12-27T10:05:58.640Z,101690.19
2022-12-27T10:08:35.085Z,101684.00
2022-12-27T10:11:04.321Z,101683.06
2022-12-27T10:13:33.739Z,101687.50
2022-12-27T10:16:18.763Z,101679.38
2022-12-27T10:19:12.864Z,101684.00
2022-12-27T10:21:52.843Z,101682.88
2022-12-27T10:24:26.376Z,101689.69
2022-12-27T10:26:55.726Z,101690.19
2022-12-27T10:29:23.892Z,101694.63
2022-12-27T10:31:51.336Z,101687.94
2022-12-27T10:34:24.622Z,101691.84
2022-12-27T10:37:15.369Z,101685.03
2022-12-27T10:39:43.031Z,101683.59
2022-12-27T10:42:15.720Z,101682.34
2022-12-27T10:44:42.427Z,101681.00
2022-12-27T10:47:09.211Z,101683.19
2022-12-27T10:49:36.488Z,101679.88
2022-12-27T10:52:19.680Z,101677.59
2022-12-27T10:54:55.087Z,101676.16
2022-12-27T10:57:25.525Z,101679.44
2022-12-27T11:00:19.832Z,101671.91
2022-12-27T11:02:54.862Z,101673.03
2022-12-27T11:05:27.880Z,101683.56
2022-12-27T11:07:55.687Z,101680.69
2022-12-27T11:10:28.241Z,101673.94
2022-12-27T11:12:56.626Z,101678.59
2022-12-27T11:15:24.321Z,101682.22
2022-12-27T11:17:55.118Z,101681.06
2022-12-27T11:20:33.167Z,101682.72
2022-12-27T11:23:03.977Z,101687.66
2022-12-27T11:25:33.285Z,101682.81
2022-12-27T11:28:22.773Z,101682.38
2022-12-27T11:30:57.253Z,101682.69
2022-12-27T11:33:45.353Z,101679.06
2022-12-27T11:36:13.566Z,101675.66
2022-12-27T11:38:45.078Z,101685.88
2022-12-27T11:41:17.003Z,101684.72
2022-12-27T11:44:19.643Z,101675.59
2022-12-27T11:47:02.204Z,101674.53
2022-12-27T11:49:37.014Z,101666.03
2022-12-27T11:52:35.447Z,101659.66
2022-12-27T11:55:23.919Z,101665.41
2022-12-27T11:58:14.459Z,101659.19
2022-12-27T12:01:05.249Z,101657.31
2022-12-27T12:04:03.736Z,101652.22
2022-12-27T12:06:48.552Z,101651.09
2022-12-27T12:09:18.308Z,101651.59
2022-12-27T12:12:09.557Z,101651.97
2022-12-27T12:14:42.216Z,101637.22
2022-12-27T12:17:50.837Z,101646.91
2022-12-27T12:20:28.402Z,101635.28
2022-12-27T12:22:55.122Z,101638.38
2022-12-27T12:25:52.360Z,101637.22
2022-12-27T12:31:57.634Z,101627.50
2022-12-27T12:34:51.799Z,101619.28
2022-12-27T12:37:43.012Z,101621.75
2022-12-27T12:40:51.893Z,101625.38
2022-12-27T12:43:43.409Z,101619.78
2022-12-27T12:46:33.528Z,101618.66
2022-12-27T12:49:05.997Z,101610.59
2022-12-27T12:52:00.615Z,101604.69
2022-12-27T12:54:51.941Z,101602.53
2022-12-27T12:57:27.737Z,101592.53
2022-12-27T13:00:00.174Z,101587.09
2022-12-27T13:02:45.598Z,101585.81
2022-12-27T13:05:51.866Z,101575.28
2022-12-27T13:08:44.467Z,101569.31
2022-12-27T13:11:26.421Z,101570.06
2022-12-27T13:14:26.800Z,101557.78
2022-12-27T13:17:06.538Z,101568.78
2022-12-27T13:20:08.097Z,101569.16
2022-12-27T13:22:50.311Z,101571.94
2022-12-27T13:25:43.122Z,101566.22
2022-12-27T13:28:31.410Z,101565.56
2022-12-27T13:31:16.790Z,101562.78
2022-12-27T13:33:54.790Z,101560.97
2022-12-27T13:36:33.667Z,101550.34
2022-12-27T13:39:44.522Z,101538.00
2022-12-27T13:42:26.128Z,101532.41
2022-12-27T13:45:06.942Z,101529.28
2022-12-27T13:47:55.516Z,101530.63
2022-12-27T13:50:40.536Z,101518.63
2022-12-27T13:53:25.742Z,101522.06
2022-12-27T13:59:29.896Z,101514.84
2022-12-27T14:02:15.462Z,101512.06
2022-12-27T14:04:52.322Z,101508.94
2022-12-27T14:07:52.440Z,101512.06
2022-12-27T14:10:21.814Z,101508.09
2022-12-27T14:12:51.297Z,101511.06
2022-12-27T14:15:42.508Z,101506.59
2022-12-27T14:18:22.691Z,101495.78
2022-12-27T14:20:57.972Z,101494.47
2022-12-27T14:23:49.131Z,101501.03
2022-12-27T14:26:46.528Z,101501.03
2022-12-27T14:29:38.594Z,101494.94
2022-12-27T14:32:33.470Z,101502.19
2022-12-27T14:35:16.134Z,101506.94
2022-12-27T14:38:22.652Z,101502.84
2022-12-27T14:41:17.066Z,101502.19
2022-12-27T14:44:01.704Z,101501.03
2022-12-27T14:46:47.127Z,101495.44
2022-12-27T14:49:32.608Z,101503.50
2022-12-27T14:52:43.937Z,101510.56
2022-12-27T14:55:48.969Z,101503.31
2022-12-27T14:58:41.167Z,101507.78
2022-12-27T15:01:33.133Z,101503.66
2022-12-27T15:13:14.283Z,101501.19
2022-12-27T15:15:52.745Z,101492.31
2022-12-27T15:18:44.483Z,101482.78
2022-12-27T15:21:35.794Z,101480.00
2022-12-27T15:24:11.366Z,101485.09
2022-12-27T15:26:47.957Z,101484.94
2022-12-27T15:29:46.691Z,101483.16
2022-12-27T15:32:53.287Z,101473.00
2022-12-27T15:35:32.021Z,101482.16
2022-12-27T15:38:10.808Z,101479.06
2022-12-27T15:40:47.893Z,101468.56
2022-12-27T15:43:47.806Z,101459.22
2022-12-27T15:46:50.674Z,101454.13
2022-12-27T15:49:39.043Z,101448.03
2022-12-27T15:52:36.370Z,101454.63
2022-12-27T15:55:39.787Z,101460.88
2022-12-27T15:58:22.859Z,101461.69
2022-12-27T16:01:25.257Z,101463.66
2022-12-27T16:03:53.845Z,101466.75
2022-12-27T16:06:35.608Z,101470.25
2022-12-27T16:09:20.972Z,101470.72
2022-12-27T16:12:35.613Z,101472.88
2022-12-27T16:15:41.033Z,101465.44
2022-12-27T16:18:33.459Z,101471.34
2022-12-27T16:21:03.005Z,101465.75
2022-12-27T16:23:31.996Z,101457.38
2022-12-27T16:26:19.702Z,101459.81
2022-12-27T16:28:52.354Z,101462.59
2022-12-27T16:31:32.247Z,101471.97
2022-12-27T16:34:13.150Z,101465.06
2022-12-27T16:36:49.923Z,101472.94
2022-12-27T16:39:28.479Z,101464.06
2022-12-27T16:41:55.299Z,101478.16
2022-12-27T16:44:24.636Z,101477.97
2022-12-27T16:46:57.545Z,101471.75
2022-12-27T16:49:30.602Z,101467.47
2022-12-27T16:52:21.597Z,101465.81
2022-12-27T16:55:25.805Z,101458.56
2022-12-27T16:57:52.546Z,101463.00
2022-12-27T17:00:40.399Z,101454.84
2022-12-27T17:03:22.219Z,101456.50
2022-12-27T17:06:30.153Z,101448.16
2022-12-27T17:08:36.933Z,101445.19
2022-12-27T17:11:30.472Z,101441.44
2022-12-27T17:14:30.793Z,101437.16
2022-12-27T17:17:12.171Z,101425.53
2022-12-27T17:19:45.516Z,101433.38
2022-12-27T17:22:16.085Z,101431.09
2022-12-27T17:24:45.540Z,101429.94
2022-12-27T17:27:12.547Z,101426.84
2022-12-27T17:30:04.014Z,101424.56
2022-12-27T17:32:33.433Z,101418.50
2022-12-27T17:35:09.301Z,101414.72
2022-12-27T17:38:14.751Z,101410.59
2022-12-27T17:40:54.589Z,101407.63
2022-12-27T17:44:02.583Z,101416.66
2022-12-27T17:49:53.059Z,101417.97
2022-12-27T17:52:42.928Z,101413.59
2022-12-27T17:55:47.301Z,101398.13
2022-12-27T17:58:16.424Z,101400.91
2022-12-27T18:00:54.921Z,101393.00
2022-12-27T18:03:23.417Z,101400.25
2022-12-27T18:05:50.549Z,101401.72
2022-12-27T18:08:28.743Z,101400.06
2022-12-27T18:11:00.949Z,101405.97
2022-12-27T18:13:32.379Z,101397.44
2022-12-27T18:16:00.627Z,101402.19
2022-12-27T18:18:31.859Z,101406.56
2022-12-27T18:21:02.329Z,101392.94
2022-12-27T18:23:29.626Z,101396.06
2022-12-27T18:26:04.905Z,101397.19
2022-12-27T18:28:35.026Z,101397.19
2022-12-27T18:31:16.635Z,101397.00
2022-12-27T18:33:50.716Z,101392.25
2022-12-27T18:36:47.330Z,101379.59
2022-12-27T18:39:26.008Z,101385.34
2022-12-27T18:41:54.210Z,101374.69
2022-12-27T18:44:27.424Z,101380.41
2022-12-27T18:46:57.663Z,101373.06
2022-12-27T18:49:26.958Z,101380.91
2022-12-27T18:51:55.152Z,101373.69
2022-12-27T18:54:27.773Z,101372.03
2022-12-27T18:56:55.846Z,101359.88
2022-12-27T18:59:31.596Z,101357.09
2022-12-27T19:02:01.465Z,101357.44
2022-12-27T19:04:32.702Z,101353.81
2022-12-27T19:07:14.422Z,101348.25
2022-12-27T19:09:53.715Z,101349.06
2022-12-27T19:12:29.477Z,101350.03
2022-12-27T19:14:56.590Z,101342.81
2022-12-27T19:17:26.445Z,101343.00
2022-12-27T19:19:56.261Z,101341.66
2022-12-27T19:22:48.614Z,101337.09
2022-12-27T19:25:18.439Z,101344.28
2022-12-27T19:27:56.766Z,101334.47
2022-12-27T19:30:45.083Z,101333.28
2022-12-27T19:33:32.776Z,101325.09
2022-12-27T19:36:00.587Z,101320.50
2022-12-27T19:38:29.130Z,101318.38
2022-12-27T19:41:03.323Z,101310.66
2022-12-27T19:43:37.235Z,101302.78
2022-12-27T19:46:04.003Z,101303.44
2022-12-27T19:48:30.688Z,101296.25
2022-12-27T19:50:58.035Z,101292.47
2022-12-27T19:53:31.035Z,101291.31
2022-12-27T19:55:58.412Z,101288.53
2022-12-27T19:58:27.594Z,101287.22
2022-12-27T20:00:55.299Z,101273.94
2022-12-27T20:03:22.073Z,101265.59
2022-12-27T20:06:13.259Z,101255.91
2022-12-27T20:08:48.513Z,101246.22
2022-12-27T20:11:19.899Z,101241.47
2022-12-27T20:13:47.446Z,101247.38
2022-12-27T20:16:17.646Z,101230.66
2022-12-27T20:18:45.013Z,101230.66
2022-12-27T20:21:13.515Z,101233.44
2022-12-27T20:23:41.287Z,101219.50
2022-12-27T20:26:08.619Z,101220.97
2022-12-27T20:28:35.925Z,101224.56
2022-12-27T20:31:12.218Z,101221.78
2022-12-27T20:33:39.396Z,101217.38
2022-12-27T20:36:07.685Z,101220.16
2022-12-27T20:38:34.697Z,101211.44
2022-12-27T20:41:09.071Z,101207.34
2022-12-27T20:43:36.353Z,101211.31
2022-12-27T20:46:05.266Z,101201.94
2022-12-27T20:48:32.185Z,101216.19
2022-12-27T20:50:58.781Z,101213.75
2022-12-27T20:53:27.897Z,101212.44
2022-12-27T20:55:59.084Z,101204.09
2022-12-27T20:58:26.170Z,101201.78
2022-12-27T21:00:53.098Z,101192.13
2022-12-27T21:03:20.170Z,101184.09
2022-12-27T21:05:47.074Z,101192.94
2022-12-27T21:08:13.755Z,101173.75
2022-12-27T21:10:40.711Z,101175.09
2022-12-27T21:13:07.912Z,101181.31
2022-12-27T21:15:40.414Z,101178.34
2022-12-27T21:18:09.128Z,101174.41
2022-12-27T21:20:35.959Z,101176.22
2022-12-27T21:23:02.754Z,101166.41
2022-12-27T21:25:29.737Z,101157.22
2022-12-27T21:27:56.561Z,101159.53
2022-12-27T21:30:23.188Z,101161.00
2022-12-27T21:32:49.832Z,101154.59
2022-12-27T21:35:16.512Z,101143.44
2022-12-27T21:37:43.200Z,101151.66
2022-12-27T21:40:13.093Z,101145.09
2022-12-27T21:42:40.001Z,101142.81
2022-12-27T21:45:07.248Z,101137.22
2022-12-27T21:47:34.028Z,101130.00
2022-12-27T21:50:00.619Z,101123.59
2022-12-27T21:52:28.931Z,101123.47
2022-12-27T21:54:55.701Z,101112.97
2022-12-27T21:57:22.443Z,101117.38
2022-12-27T21:59:49.033Z,101101.00
2022-12-27T22:02:15.884Z,101097.22
2022-12-27T22:04:42.746Z,101086.72
2022-12-27T22:07:09.483Z,101089.50
2022-12-27T22:09:36.987Z,101083.44
2022-12-27T22:12:03.846Z,101082.47
2022-12-27T22:14:36.582Z,101072.47
2022-12-27T22:17:04.163Z,101072.31
2022-12-27T22:19:30.904Z,101063.63
2022-12-27T22:21:57.621Z,101056.59
2022-12-27T22:24:24.384Z,101054.78
2022-12-27T22:26:51.097Z,101058.22
2022-12-27T22:29:17.847Z,101053.94
2022-12-27T22:31:44.550Z,101054.78
2022-12-27T22:34:11.271Z,101058.88
2022-12-27T22:36:37.933Z,101052.97
2022-12-27T22:39:04.798Z,101056.25
2022-12-27T22:41:33.908Z,101051.31
2022-12-27T22:44:10.485Z,101033.31
2022-12-27T22:49:24.235Z,101016.94
2022-12-27T22:51:50.855Z,101016.56
2022-12-27T22:54:17.501Z,101016.91
2022-12-27T22:56:44.554Z,101007.59
2022-12-27T22:59:14.252Z,101004.28
2022-12-27T23:01:43.666Z,101003.09
2022-12-27T23:04:12.407Z,101006.06
2022-12-27T23:06:40.121Z,101000.31
2022-12-27T23:09:07.881Z,100997.88
2022-12-27T23:11:37.580Z,101001.94
2022-12-27T23:14:06.947Z,100990.34
2022-12-27T23:16:37.628Z,100990.81
2022-12-27T23:19:11.896Z,100980.16
2022-12-27T23:21:38.785Z,100967.22
2022-12-27T23:24:06.428Z,100959.53
2022-12-27T23:26:33.094Z,100956.56
2022-12-27T23:28:59.999Z,100956.38
2022-12-27T23:31:27.763Z,100949.84
2022-12-27T23:33:57.468Z,100949.03
2022-12-27T23:36:24.370Z,100945.56
2022-12-27T23:38:51.285Z,100938.19
2022-12-27T23:41:21.629Z,100937.22
2022-12-27T23:43:52.757Z,100920.84
2022-12-27T23:46:22.369Z,100916.25
2022-12-27T23:48:50.093Z,100914.13
2022-12-27T23:51:17.266Z,100913.94
2022-12-27T23:53:44.271Z,100914.28
2022-12-27T23:56:21.032Z,100902.97
2022-12-27T23:58:49.789Z,100902.78
